TimeCST,TemperatureF,Dew PointF,Humidity,Sea Level PressureIn,VisibilityMPH,Wind Direction,Wind SpeedMPH,Gust SpeedMPH,PrecipitationIn,Events,Conditions,WindDirDegrees,DateUTC
12:15 AM,48.2,37.4,66,30.10,10.0,NE,8.1,-,N/A,,Overcast,50,2014-02-25 06:15:00
12:35 AM,48.2,37.4,66,30.11,10.0,ENE,5.8,-,N/A,,Overcast,60,2014-02-25 06:35:00
12:55 AM,48.2,39.2,71,30.11,10.0,NE,9.2,-,N/A,,Overcast,40,2014-02-25 06:55:00
1:15 AM,48.2,39.2,71,30.12,10.0,NE,8.1,-,N/A,,Overcast,50,2014-02-25 07:15:00
1:35 AM,46.4,39.2,76,30.13,10.0,NE,6.9,-,N/A,,Overcast,50,2014-02-25 07:35:00
1:55 AM,46.4,41.0,81,30.13,10.0,NE,5.8,-,N/A,,Overcast,50,2014-02-25 07:55:00
2:15 AM,46.4,41.0,81,30.14,10.0,NE,9.2,-,N/A,,Overcast,50,2014-02-25 08:15:00
3:55 AM,46.4,41.0,81,30.12,7.0,ENE,10.4,-,N/A,,Overcast,60,2014-02-25 09:55:00
4:20 AM,46.4,41.0,81,30.12,7.0,ENE,9.2,-,N/A,,Overcast,60,2014-02-25 10:20:00
4:35 AM,46.4,41.0,81,30.13,10.0,NE,9.2,-,N/A,,Overcast,40,2014-02-25 10:35:00
4:55 AM,46.4,41.0,81,30.13,10.0,ENE,4.6,-,N/A,,Overcast,60,2014-02-25 10:55:00
5:15 AM,46.4,41.0,81,30.13,10.0,NE,5.8,-,N/A,,Overcast,40,2014-02-25 11:15:00
5:35 AM,44.6,37.4,76,30.13,7.0,ENE,5.8,-,N/A,,Scattered Clouds,60,2014-02-25 11:35:00
5:55 AM,42.8,37.4,81,30.14,7.0,Calm,Calm,-,N/A,,Scattered Clouds,0,2014-02-25 11:55:00
6:15 AM,42.8,37.4,81,30.14,7.0,NE,4.6,-,N/A,,Mostly Cloudy,50,2014-02-25 12:15:00
6:35 AM,42.8,39.2,87,30.14,7.0,Calm,Calm,-,N/A,,Mostly Cloudy,0,2014-02-25 12:35:00
6:55 AM,42.8,41.0,93,30.14,7.0,NNE,6.9,-,N/A,,Overcast,30,2014-02-25 12:55:00
7:15 AM,44.6,41.0,87,30.14,7.0,NE,4.6,-,N/A,,Overcast,40,2014-02-25 13:15:00
7:35 AM,44.6,41.0,87,30.15,7.0,NNE,6.9,-,N/A,,Overcast,30,2014-02-25 13:35:00
7:55 AM,44.6,41.0,87,30.15,7.0,NNE,6.9,-,N/A,,Overcast,30,2014-02-25 13:55:00
8:15 AM,44.6,41.0,87,30.16,7.0,NE,8.1,-,N/A,,Overcast,40,2014-02-25 14:15:00
8:35 AM,46.4,41.0,81,30.16,7.0,NE,10.4,-,N/A,,Overcast,40,2014-02-25 14:35:00
8:55 AM,46.4,41.0,81,30.16,7.0,NNE,9.2,-,N/A,,Overcast,30,2014-02-25 14:55:00
9:15 AM,46.4,41.0,81,30.16,7.0,NNE,8.1,-,N/A,,Overcast,30,2014-02-25 15:15:00
9:35 AM,48.2,41.0,76,30.16,7.0,NE,11.5,-,N/A,,Overcast,40,2014-02-25 15:35:00
9:55 AM,50.0,41.0,71,30.16,7.0,NE,8.1,-,N/A,,Overcast,50,2014-02-25 15:55:00
10:15 AM,50.0,41.0,71,30.16,7.0,ENE,8.1,-,N/A,,Overcast,60,2014-02-25 16:15:00
10:35 AM,51.8,37.4,58,30.15,7.0,ENE,8.1,-,N/A,,Overcast,70,2014-02-25 16:35:00
10:50 AM,51.8,37.4,58,30.14,7.0,East,10.4,-,N/A,,Overcast,80,2014-02-25 16:50:00
11:20 AM,51.8,37.4,58,30.15,10.0,ENE,9.2,-,N/A,,Overcast,70,2014-02-25 17:20:00
11:35 AM,51.8,37.4,58,30.15,10.0,East,9.2,-,N/A,,Overcast,80,2014-02-25 17:35:00
11:55 AM,51.8,37.4,58,30.14,10.0,NE,8.1,-,N/A,,Overcast,50,2014-02-25 17:55:00
12:15 PM,53.6,35.6,51,30.14,10.0,East,8.1,-,N/A,,Overcast,80,2014-02-25 18:15:00
12:35 PM,53.6,37.4,54,30.13,10.0,ENE,6.9,-,N/A,,Overcast,60,2014-02-25 18:35:00
12:55 PM,53.6,37.4,54,30.12,10.0,NE,5.8,-,N/A,,Overcast,40,2014-02-25 18:55:00
1:15 PM,51.8,37.4,58,30.11,10.0,North,8.1,-,N/A,,Overcast,350,2014-02-25 19:15:00
1:35 PM,51.8,35.6,54,30.10,10.0,NNE,8.1,-,N/A,,Overcast,30,2014-02-25 19:35:00
1:55 PM,51.8,35.6,54,30.09,10.0,NNE,6.9,-,N/A,,Overcast,20,2014-02-25 19:55:00
2:15 PM,51.8,35.6,54,30.08,10.0,NW,9.2,-,N/A,,Overcast,310,2014-02-25 20:15:00
2:35 PM,51.8,33.8,50,30.08,10.0,NNE,8.1,-,N/A,,Overcast,20,2014-02-25 20:35:00
2:55 PM,51.8,35.6,54,30.08,10.0,NW,5.8,-,N/A,,Overcast,320,2014-02-25 20:55:00
3:15 PM,51.8,35.6,54,30.08,10.0,ENE,8.1,-,N/A,,Overcast,60,2014-02-25 21:15:00
3:35 PM,51.8,30.2,44,30.08,10.0,North,13.8,-,N/A,,Overcast,360,2014-02-25 21:35:00
3:55 PM,50.0,28.4,43,30.08,10.0,NW,16.1,-,N/A,,Overcast,320,2014-02-25 21:55:00
4:15 PM,50.0,28.4,43,30.09,10.0,North,17.3,-,N/A,,Overcast,360,2014-02-25 22:15:00
4:35 PM,48.2,28.4,46,30.09,10.0,NNE,16.1,21.9,N/A,,Overcast,20,2014-02-25 22:35:00
4:55 PM,48.2,26.6,43,30.09,10.0,NNW,16.1,23.0,N/A,,Overcast,330,2014-02-25 22:55:00
5:15 PM,46.4,26.6,46,30.08,10.0,North,19.6,-,N/A,,Overcast,360,2014-02-25 23:15:00
5:35 PM,46.4,28.4,50,30.09,10.0,North,16.1,-,N/A,,Overcast,10,2014-02-25 23:35:00
5:55 PM,44.6,28.4,53,30.08,10.0,NNE,17.3,21.9,N/A,,Overcast,20,2014-02-25 23:55:00
6:15 PM,44.6,28.4,53,30.09,10.0,NNE,21.9,25.3,N/A,,Overcast,20,2014-02-26 00:15:00
6:35 PM,44.6,30.2,57,30.09,10.0,North,15.0,24.2,N/A,,Overcast,10,2014-02-26 00:35:00
6:55 PM,42.8,30.2,61,30.11,10.0,NNW,15.0,21.9,N/A,,Overcast,340,2014-02-26 00:55:00
7:15 PM,44.6,30.2,57,30.10,10.0,North,13.8,-,N/A,,Overcast,10,2014-02-26 01:15:00
7:35 PM,44.6,28.4,53,30.11,10.0,North,15.0,21.9,N/A,,Overcast,360,2014-02-26 01:35:00
7:55 PM,44.6,28.4,53,30.11,10.0,North,13.8,-,N/A,,Light Drizzle,10,2014-02-26 01:55:00
8:15 PM,44.6,26.6,49,30.11,10.0,North,13.8,21.9,N/A,,Overcast,360,2014-02-26 02:15:00
8:35 PM,44.6,28.4,53,30.12,10.0,North,16.1,20.7,N/A,,Overcast,10,2014-02-26 02:35:00
8:55 PM,44.6,26.6,49,30.13,10.0,NNE,16.1,25.3,N/A,,Overcast,20,2014-02-26 02:55:00
9:15 PM,44.6,26.6,49,30.14,10.0,NNW,16.1,25.3,N/A,,Overcast,340,2014-02-26 03:15:00
9:35 PM,42.8,28.4,57,30.15,10.0,North,19.6,-,N/A,,Overcast,350,2014-02-26 03:35:00
9:55 PM,42.8,28.4,57,30.16,10.0,North,19.6,24.2,N/A,,Overcast,360,2014-02-26 03:55:00
10:15 PM,42.8,26.6,53,30.16,10.0,North,18.4,26.5,N/A,,Overcast,360,2014-02-26 04:15:00
10:35 PM,41.0,26.6,57,30.18,10.0,North,15.0,-,N/A,,Overcast,350,2014-02-26 04:35:00
10:55 PM,41.0,26.6,57,30.18,10.0,North,20.7,27.6,N/A,,Overcast,360,2014-02-26 04:55:00
11:15 PM,41.0,26.6,57,30.18,10.0,NNE,24.2,27.6,N/A,,Overcast,20,2014-02-26 05:15:00
11:35 PM,41.0,26.6,57,30.19,10.0,North,20.7,28.8,N/A,,Overcast,350,2014-02-26 05:35:00
11:55 PM,41.0,26.6,57,30.20,10.0,North,20.7,31.1,N/A,,Overcast,360,2014-02-26 05:55:00